sensor_id;sensor_type;location;lat;lon;timestamp;pressure;altitude;pressure_sealevel;temperature;humidity
46876;BME280;32866;50.160;14.768;2023-04-10T00:01:10;100309.59;;;6.09;100.00
46876;BME280;32866;50.160;14.768;2023-04-10T00:03:35;100283.16;;;5.99;100.00
46876;BME280;32866;50.160;14.768;2023-04-10T00:06:01;100275.66;;;5.81;100.00
46876;BME280;32866;50.160;14.768;2023-04-10T00:08:26;100316.63;;;6.17;100.00
46876;BME280;32866;50.160;14.768;2023-04-10T00:10:51;100276.19;;;6.16;100.00
46876;BME280;32866;50.160;14.768;2023-04-10T00:13:21;100280.88;;;6.19;100.00
46876;BME280;32866;50.160;14.768;2023-04-10T00:15:47;100272.28;;;6.09;100.00
46876;BME280;32866;50.160;14.768;2023-04-10T00:18:12;100259.44;;;6.06;100.00
46876;BME280;32866;50.160;14.768;2023-04-10T00:20:38;100273.09;;;6.17;100.00
46876;BME280;32866;50.160;14.768;2023-04-10T00:23:03;100296.06;;;6.38;100.00
46876;BME280;32866;50.160;14.768;2023-04-10T00:25:29;100257.13;;;6.16;100.00
46876;BME280;32866;50.160;14.768;2023-04-10T00:27:54;100288.69;;;6.45;100.00
46876;BME280;32866;50.160;14.768;2023-04-10T00:30:20;100252.47;;;6.20;100.00
46876;BME280;32866;50.160;14.768;2023-04-10T00:32:46;100287.47;;;6.21;100.00
46876;BME280;32866;50.160;14.768;2023-04-10T00:35:11;100287.47;;;6.10;100.00
46876;BME280;32866;50.160;14.768;2023-04-10T00:37:37;100288.97;;;6.04;100.00
46876;BME280;32866;50.160;14.768;2023-04-10T00:40:03;100274.59;;;6.00;100.00
46876;BME280;32866;50.160;14.768;2023-04-10T00:42:29;100278.16;;;6.22;100.00
46876;BME280;32866;50.160;14.768;2023-04-10T00:44:54;100251.66;;;6.05;100.00
46876;BME280;32866;50.160;14.768;2023-04-10T00:47:20;100278.16;;;6.37;100.00
46876;BME280;32866;50.160;14.768;2023-04-10T00:49:45;100243.88;;;6.03;100.00
46876;BME280;32866;50.160;14.768;2023-04-10T00:52:11;100238.41;;;5.92;100.00
46876;BME280;32866;50.160;14.768;2023-04-10T00:54:36;100252.38;;;5.87;100.00
46876;BME280;32866;50.160;14.768;2023-04-10T00:57:02;100274.22;;;6.02;100.00
46876;BME280;32866;50.160;14.768;2023-04-10T00:59:30;100278.88;;;6.05;100.00
46876;BME280;32866;50.160;14.768;2023-04-10T01:01:56;100267.22;;;6.08;100.00
46876;BME280;32866;50.160;14.768;2023-04-10T01:04:22;100258.72;;;6.20;100.00
46876;BME280;32866;50.160;14.768;2023-04-10T01:09:23;100261.84;;;6.44;100.00
46876;BME280;32866;50.160;14.768;2023-04-10T01:11:59;100260.66;;;6.34;100.00
46876;BME280;32866;50.160;14.768;2023-04-10T01:14:41;100252.84;;;6.11;100.00
46876;BME280;32866;50.160;14.768;2023-04-10T01:17:37;100264.91;;;6.13;100.00
46876;BME280;32866;50.160;14.768;2023-04-10T01:22:35;100256.38;;;6.37;100.00
46876;BME280;32866;50.160;14.768;2023-04-10T01:25:37;100252.88;;;6.36;100.00
46876;BME280;32866;50.160;14.768;2023-04-10T01:30:50;100244.69;;;5.97;100.00
46876;BME280;32866;50.160;14.768;2023-04-10T01:33:19;100214.63;;;5.64;100.00
46876;BME280;32866;50.160;14.768;2023-04-10T01:35:49;100244.19;;;5.76;100.00
46876;BME280;32866;50.160;14.768;2023-04-10T01:38:17;100244.97;;;5.73;100.00
46876;BME280;32866;50.160;14.768;2023-04-10T01:40:45;100251.94;;;5.71;100.00
46876;BME280;32866;50.160;14.768;2023-04-10T01:43:15;100220.34;;;5.41;100.00
46876;BME280;32866;50.160;14.768;2023-04-10T01:45:41;100224.66;;;5.49;100.00
46876;BME280;32866;50.160;14.768;2023-04-10T01:48:08;100248.06;;;5.68;100.00
46876;BME280;32866;50.160;14.768;2023-04-10T01:50:34;100247.69;;;5.73;100.00
46876;BME280;32866;50.160;14.768;2023-04-10T01:53:02;100257.75;;;5.73;100.00
46876;BME280;32866;50.160;14.768;2023-04-10T01:55:28;100255.88;;;5.88;100.00
46876;BME280;32866;50.160;14.768;2023-04-10T01:57:56;100255.41;;;5.68;100.00
46876;BME280;32866;50.160;14.768;2023-04-10T02:00:21;100253.88;;;5.67;100.00
46876;BME280;32866;50.160;14.768;2023-04-10T02:02:47;100257.00;;;5.69;100.00
46876;BME280;32866;50.160;14.768;2023-04-10T02:05:15;100255.41;;;5.64;100.00
46876;BME280;32866;50.160;14.768;2023-04-10T02:08:01;100255.78;;;5.63;100.00
46876;BME280;32866;50.160;14.768;2023-04-10T02:13:09;100260.09;;;5.67;100.00
46876;BME280;32866;50.160;14.768;2023-04-10T02:15:35;100258.19;;;5.75;100.00
46876;BME280;32866;50.160;14.768;2023-04-10T02:18:04;100260.47;;;5.66;100.00
46876;BME280;32866;50.160;14.768;2023-04-10T02:20:30;100209.47;;;5.37;100.00
46876;BME280;32866;50.160;14.768;2023-04-10T02:22:57;100249.94;;;5.57;100.00
46876;BME280;32866;50.160;14.768;2023-04-10T02:25:26;100241.34;;;5.44;100.00
46876;BME280;32866;50.160;14.768;2023-04-10T02:27:51;100223.88;;;5.42;100.00
46876;BME280;32866;50.160;14.768;2023-04-10T02:30:17;100232.44;;;5.47;100.00
46876;BME280;32866;50.160;14.768;2023-04-10T02:32:42;100239.84;;;5.57;100.00
46876;BME280;32866;50.160;14.768;2023-04-10T02:35:08;100217.63;;;5.41;100.00
46876;BME280;32866;50.160;14.768;2023-04-10T02:37:33;100239.44;;;5.48;100.00
46876;BME280;32866;50.160;14.768;2023-04-10T02:40:00;100241.31;;;5.37;100.00
46876;BME280;32866;50.160;14.768;2023-04-10T02:42:25;100247.16;;;5.39;100.00
46876;BME280;32866;50.160;14.768;2023-04-10T02:44:51;100259.25;;;5.52;100.00
46876;BME280;32866;50.160;14.768;2023-04-10T02:47:16;100265.50;;;5.56;100.00
46876;BME280;32866;50.160;14.768;2023-04-10T02:49:42;100268.22;;;5.56;100.00
46876;BME280;32866;50.160;14.768;2023-04-10T02:52:08;100231.19;;;5.30;100.00
46876;BME280;32866;50.160;14.768;2023-04-10T02:54:33;100268.59;;;5.51;100.00
46876;BME280;32866;50.160;14.768;2023-04-10T02:56:59;100240.88;;;5.28;100.00
46876;BME280;32866;50.160;14.768;2023-04-10T02:59:24;100265.44;;;5.49;100.00
46876;BME280;32866;50.160;14.768;2023-04-10T03:01:50;100268.25;;;5.67;100.00
46876;BME280;32866;50.160;14.768;2023-04-10T03:04:16;100262.41;;;5.62;100.00
46876;BME280;32866;50.160;14.768;2023-04-10T03:06:42;100225.00;;;5.33;100.00
46876;BME280;32866;50.160;14.768;2023-04-10T03:09:07;100265.50;;;5.60;100.00
46876;BME280;32866;50.160;14.768;2023-04-10T03:11:33;100230.06;;;5.35;100.00
46876;BME280;32866;50.160;14.768;2023-04-10T03:13:58;100272.88;;;5.60;100.00
46876;BME280;32866;50.160;14.768;2023-04-10T03:16:23;100273.28;;;5.58;100.00
46876;BME280;32866;50.160;14.768;2023-04-10T03:18:49;100263.16;;;5.58;100.00
46876;BME280;32866;50.160;14.768;2023-04-10T03:21:14;100271.31;;;5.58;100.00
46876;BME280;32866;50.160;14.768;2023-04-10T03:23:40;100270.19;;;5.67;100.00
46876;BME280;32866;50.160;14.768;2023-04-10T03:26:06;100266.34;;;5.75;100.00
46876;BME280;32866;50.160;14.768;2023-04-10T03:28:31;100268.69;;;5.80;100.00
46876;BME280;32866;50.160;14.768;2023-04-10T03:30:57;100269.44;;;5.77;100.00
46876;BME280;32866;50.160;14.768;2023-04-10T03:33:23;100243.69;;;5.49;100.00
46876;BME280;32866;50.160;14.768;2023-04-10T03:35:49;100270.56;;;5.65;100.00
46876;BME280;32866;50.160;14.768;2023-04-10T03:38:14;100241.72;;;5.39;100.00
46876;BME280;32866;50.160;14.768;2023-04-10T03:40:40;100274.06;;;5.66;100.00
46876;BME280;32866;50.160;14.768;2023-04-10T03:43:05;100274.81;;;5.63;100.00
46876;BME280;32866;50.160;14.768;2023-04-10T03:45:31;100267.78;;;5.54;100.00
46876;BME280;32866;50.160;14.768;2023-04-10T03:47:57;100278.75;;;5.69;100.00
46876;BME280;32866;50.160;14.768;2023-04-10T03:50:22;100280.31;;;5.73;100.00
46876;BME280;32866;50.160;14.768;2023-04-10T03:52:48;100279.16;;;5.74;100.00
46876;BME280;32866;50.160;14.768;2023-04-10T03:55:16;100261.13;;;5.41;100.00
46876;BME280;32866;50.160;14.768;2023-04-10T03:57:45;100277.16;;;5.64;100.00
46876;BME280;32866;50.160;14.768;2023-04-10T04:00:11;100277.53;;;5.63;100.00
46876;BME280;32866;50.160;14.768;2023-04-10T04:02:36;100280.31;;;5.70;100.00
46876;BME280;32866;50.160;14.768;2023-04-10T04:05:01;100269.47;;;5.84;100.00
46876;BME280;32866;50.160;14.768;2023-04-10T04:07:27;100248.44;;;5.67;100.00
46876;BME280;32866;50.160;14.768;2023-04-10T04:09:52;100245.63;;;5.45;100.00
46876;BME280;32866;50.160;14.768;2023-04-10T04:12:19;100279.50;;;5.69;100.00
46876;BME280;32866;50.160;14.768;2023-04-10T04:14:44;100245.63;;;5.45;100.00
46876;BME280;32866;50.160;14.768;2023-04-10T04:17:10;100280.75;;;5.86;100.00
46876;BME280;32866;50.160;14.768;2023-04-10T04:19:35;100255.41;;;5.61;100.00
46876;BME280;32866;50.160;14.768;2023-04-10T04:22:01;100254.56;;;5.46;100.00
46876;BME280;32866;50.160;14.768;2023-04-10T04:24:26;100257.75;;;5.69;100.00
46876;BME280;32866;50.160;14.768;2023-04-10T04:26:52;100275.66;;;5.81;100.00
46876;BME280;32866;50.160;14.768;2023-04-10T04:29:17;100291.19;;;5.70;100.00
46876;BME280;32866;50.160;14.768;2023-04-10T04:31:42;100294.25;;;5.65;100.00
46876;BME280;32866;50.160;14.768;2023-04-10T04:34:08;100257.28;;;5.49;100.00
46876;BME280;32866;50.160;14.768;2023-04-10T04:36:33;100284.97;;;5.73;100.00
46876;BME280;32866;50.160;14.768;2023-04-10T04:38:59;100263.16;;;5.58;100.00
46876;BME280;32866;50.160;14.768;2023-04-10T04:41:24;100295.91;;;5.84;100.00
46876;BME280;32866;50.160;14.768;2023-04-10T04:43:49;100269.81;;;5.72;100.00
46876;BME280;32866;50.160;14.768;2023-04-10T04:46:17;100286.59;;;5.88;100.00
46876;BME280;32866;50.160;14.768;2023-04-10T04:48:42;100270.97;;;5.64;100.00
46876;BME280;32866;50.160;14.768;2023-04-10T04:51:08;100277.06;;;5.39;100.00
46876;BME280;32866;50.160;14.768;2023-04-10T04:53:33;100282.59;;;5.57;100.00
46876;BME280;32866;50.160;14.768;2023-04-10T04:55:59;100311.47;;;5.94;100.00
46876;BME280;32866;50.160;14.768;2023-04-10T04:58:24;100269.00;;;5.61;100.00
46876;BME280;32866;50.160;14.768;2023-04-10T05:00:53;100312.97;;;5.81;100.00
46876;BME280;32866;50.160;14.768;2023-04-10T05:03:19;100309.84;;;5.75;100.00
46876;BME280;32866;50.160;14.768;2023-04-10T05:05:44;100284.53;;;5.60;100.00
46876;BME280;32866;50.160;14.768;2023-04-10T05:08:10;100275.22;;;5.65;100.00
46876;BME280;32866;50.160;14.768;2023-04-10T05:10:35;100312.63;;;5.93;100.00
46876;BME280;32866;50.160;14.768;2023-04-10T05:13:00;100292.47;;;6.05;100.00
46876;BME280;32866;50.160;14.768;2023-04-10T05:15:26;100325.22;;;6.48;100.00
46876;BME280;32866;50.160;14.768;2023-04-10T05:17:51;100330.25;;;6.28;100.00
46876;BME280;32866;50.160;14.768;2023-04-10T05:20:18;100322.47;;;6.26;100.00
46876;BME280;32866;50.160;14.768;2023-04-10T05:22:43;100325.63;;;6.36;100.00
46876;BME280;32866;50.160;14.768;2023-04-10T05:25:09;100326.00;;;6.45;100.00
46876;BME280;32866;50.160;14.768;2023-04-10T05:27:35;100336.53;;;6.57;100.00
46876;BME280;32866;50.160;14.768;2023-04-10T05:30:00;100325.63;;;6.75;100.00
46876;BME280;32866;50.160;14.768;2023-04-10T05:32:25;100331.47;;;6.92;100.00
46876;BME280;32866;50.160;14.768;2023-04-10T05:34:51;100336.16;;;6.84;100.00
46876;BME280;32866;50.160;14.768;2023-04-10T05:37:16;100340.84;;;6.94;100.00
46876;BME280;32866;50.160;14.768;2023-04-10T05:39:42;100337.31;;;7.15;100.00
46876;BME280;32866;50.160;14.768;2023-04-10T05:42:07;100325.63;;;6.97;100.00
46876;BME280;32866;50.160;14.768;2023-04-10T05:44:32;100326.81;;;7.03;100.00
46876;BME280;32866;50.160;14.768;2023-04-10T05:46:58;100345.09;;;7.20;100.00
46876;BME280;32866;50.160;14.768;2023-04-10T05:49:23;100343.91;;;7.32;100.00
46876;BME280;32866;50.160;14.768;2023-04-10T05:51:49;100350.91;;;7.33;100.00
46876;BME280;32866;50.160;14.768;2023-04-10T05:54:16;100346.25;;;7.37;100.00
46876;BME280;32866;50.160;14.768;2023-04-10T05:56:41;100348.53;;;7.57;100.00
46876;BME280;32866;50.160;14.768;2023-04-10T05:59:07;100327.03;;;7.73;100.00
46876;BME280;32866;50.160;14.768;2023-04-10T06:01:32;100349.75;;;8.37;100.00
46876;BME280;32866;50.160;14.768;2023-04-10T06:03:57;100352.19;;;8.84;100.00
46876;BME280;32866;50.160;14.768;2023-04-10T06:06:23;100343.66;;;8.75;100.00
46876;BME280;32866;50.160;14.768;2023-04-10T06:08:50;100358.59;;;9.12;100.00
46876;BME280;32866;50.160;14.768;2023-04-10T06:11:15;100352.53;;;9.35;100.00
46876;BME280;32866;50.160;14.768;2023-04-10T06:13:40;100360.03;;;9.65;100.00
46876;BME280;32866;50.160;14.768;2023-04-10T06:16:06;100359.47;;;10.12;100.00
46876;BME280;32866;50.160;14.768;2023-04-10T06:18:32;100365.50;;;10.30;100.00
46876;BME280;32866;50.160;14.768;2023-04-10T06:20:57;100356.28;;;10.48;100.00
46876;BME280;32866;50.160;14.768;2023-04-10T06:23:26;100325.31;;;10.51;100.00
46876;BME280;32866;50.160;14.768;2023-04-10T06:25:53;100362.03;;;10.81;100.00
46876;BME280;32866;50.160;14.768;2023-04-10T06:28:18;100365.53;;;10.85;100.00
46876;BME280;32866;50.160;14.768;2023-04-10T06:30:43;100339.66;;;10.31;100.00
46876;BME280;32866;50.160;14.768;2023-04-10T06:33:09;100343.56;;;10.61;100.00
46876;BME280;32866;50.160;14.768;2023-04-10T06:35:35;100371.94;;;10.74;100.00
46876;BME280;32866;50.160;14.768;2023-04-10T06:38:00;100372.81;;;11.19;100.00
46876;BME280;32866;50.160;14.768;2023-04-10T06:40:26;100352.91;;;11.14;100.00
46876;BME280;32866;50.160;14.768;2023-04-10T06:42:53;100352.78;;;11.22;100.00
46876;BME280;32866;50.160;14.768;2023-04-10T06:45:19;100376.09;;;11.10;100.00
46876;BME280;32866;50.160;14.768;2023-04-10T06:47:45;100355.25;;;11.36;100.00
46876;BME280;32866;50.160;14.768;2023-04-10T06:50:10;100366.19;;;12.56;100.00
46876;BME280;32866;50.160;14.768;2023-04-10T06:52:35;100375.94;;;12.41;100.00
46876;BME280;32866;50.160;14.768;2023-04-10T06:55:01;100340.25;;;12.57;100.00
46876;BME280;32866;50.160;14.768;2023-04-10T06:57:26;100378.78;;;13.82;100.00
46876;BME280;32866;50.160;14.768;2023-04-10T06:59:52;100378.38;;;13.96;100.00
46876;BME280;32866;50.160;14.768;2023-04-10T07:02:18;100378.00;;;14.36;100.00
46876;BME280;32866;50.160;14.768;2023-04-10T07:04:43;100371.84;;;14.83;100.00
46876;BME280;32866;50.160;14.768;2023-04-10T07:07:09;100336.91;;;15.15;100.00
46876;BME280;32866;50.160;14.768;2023-04-10T07:09:36;100339.72;;;16.04;100.00
46876;BME280;32866;50.160;14.768;2023-04-10T07:12:02;100374.28;;;16.40;100.00
46876;BME280;32866;50.160;14.768;2023-04-10T07:14:27;100371.69;;;16.45;100.00
46876;BME280;32866;50.160;14.768;2023-04-10T07:16:52;100373.38;;;15.67;100.00
46876;BME280;32866;50.160;14.768;2023-04-10T07:19:18;100373.28;;;17.24;100.00
46876;BME280;32866;50.160;14.768;2023-04-10T07:21:43;100352.97;;;17.64;97.54
46876;BME280;32866;50.160;14.768;2023-04-10T07:24:08;100359.69;;;18.52;85.74
46876;BME280;32866;50.160;14.768;2023-04-10T07:26:34;100344.06;;;18.64;76.01
46876;BME280;32866;50.160;14.768;2023-04-10T07:28:59;100348.59;;;18.52;74.71
46876;BME280;32866;50.160;14.768;2023-04-10T07:31:24;100344.56;;;18.86;73.31
46876;BME280;32866;50.160;14.768;2023-04-10T07:33:49;100357.75;;;19.01;73.30
46876;BME280;32866;50.160;14.768;2023-04-10T07:36:15;100329.28;;;18.91;69.19
46876;BME280;32866;50.160;14.768;2023-04-10T07:38:41;100357.00;;;19.39;69.06
46876;BME280;32866;50.160;14.768;2023-04-10T07:41:06;100323.91;;;18.87;69.82
46876;BME280;32866;50.160;14.768;2023-04-10T07:43:31;100336.50;;;18.64;73.37
46876;BME280;32866;50.160;14.768;2023-04-10T07:45:57;100329.38;;;18.39;67.63
46876;BME280;32866;50.160;14.768;2023-04-10T07:48:31;100345.53;;;19.61;65.27
46876;BME280;32866;50.160;14.768;2023-04-10T07:50:56;100336.53;;;19.67;63.58
46876;BME280;32866;50.160;14.768;2023-04-10T07:53:22;100305.28;;;20.01;62.15
46876;BME280;32866;50.160;14.768;2023-04-10T07:55:48;100333.16;;;20.72;58.01
46876;BME280;32866;50.160;14.768;2023-04-10T07:58:13;100334.28;;;20.81;56.27
46876;BME280;32866;50.160;14.768;2023-04-10T08:00:39;100331.66;;;20.92;55.26
46876;BME280;32866;50.160;14.768;2023-04-10T08:03:04;100306.16;;;20.08;56.64
46876;BME280;32866;50.160;14.768;2023-04-10T08:05:31;100335.78;;;20.11;54.18
46876;BME280;32866;50.160;14.768;2023-04-10T08:07:56;100335.00;;;19.51;55.70
46876;BME280;32866;50.160;14.768;2023-04-10T08:10:22;100304.63;;;20.78;51.75
46876;BME280;32866;50.160;14.768;2023-04-10T08:12:47;100327.97;;;20.45;53.92
46876;BME280;32866;50.160;14.768;2023-04-10T08:15:13;100325.91;;;19.95;54.35
46876;BME280;32866;50.160;14.768;2023-04-10T08:17:38;100328.28;;;20.88;54.09
46876;BME280;32866;50.160;14.768;2023-04-10T08:20:04;100322.22;;;20.69;51.90
46876;BME280;32866;50.160;14.768;2023-04-10T08:22:29;100325.66;;;21.46;49.80
46876;BME280;32866;50.160;14.768;2023-04-10T08:24:55;100312.94;;;19.47;52.00
46876;BME280;32866;50.160;14.768;2023-04-10T08:27:20;100319.50;;;19.89;51.52
46876;BME280;32866;50.160;14.768;2023-04-10T08:29:45;100316.38;;;20.67;51.16
46876;BME280;32866;50.160;14.768;2023-04-10T08:32:10;100319.66;;;20.15;50.22
46876;BME280;32866;50.160;14.768;2023-04-10T08:34:36;100308.00;;;18.30;55.28
46876;BME280;32866;50.160;14.768;2023-04-10T08:37:05;100306.50;;;16.85;62.04
46876;BME280;32866;50.160;14.768;2023-04-10T08:39:33;100305.25;;;18.21;58.83
46876;BME280;32866;50.160;14.768;2023-04-10T08:42:00;100284.78;;;18.76;58.04
46876;BME280;32866;50.160;14.768;2023-04-10T08:44:25;100313.19;;;20.74;52.66
46876;BME280;32866;50.160;14.768;2023-04-10T08:46:51;100313.19;;;20.38;52.96
46876;BME280;32866;50.160;14.768;2023-04-10T08:49:21;100316.47;;;20.72;53.25
46876;BME280;32866;50.160;14.768;2023-04-10T08:51:55;100314.19;;;20.56;49.00
46876;BME280;32866;50.160;14.768;2023-04-10T08:54:27;100317.44;;;21.10;50.26
46876;BME280;32866;50.160;14.768;2023-04-10T08:56:54;100323.81;;;19.90;51.81
46876;BME280;32866;50.160;14.768;2023-04-10T08:59:20;100319.75;;;19.46;54.68
46876;BME280;32866;50.160;14.768;2023-04-10T09:01:45;100312.50;;;20.44;52.88
46876;BME280;32866;50.160;14.768;2023-04-10T09:04:14;100308.81;;;20.52;51.65
46876;BME280;32866;50.160;14.768;2023-04-10T09:06:41;100308.34;;;20.54;51.31
46876;BME280;32866;50.160;14.768;2023-04-10T09:09:06;100307.34;;;20.92;50.19
46876;BME280;32866;50.160;14.768;2023-04-10T09:16:50;100302.88;;;20.60;50.24
46876;BME280;32866;50.160;14.768;2023-04-10T09:19:29;100294.09;;;19.81;54.46
46876;BME280;32866;50.160;14.768;2023-04-10T09:21:55;100295.38;;;20.51;49.05
46876;BME280;32866;50.160;14.768;2023-04-10T09:24:21;100294.81;;;21.49;48.21
46876;BME280;32866;50.160;14.768;2023-04-10T09:26:46;100292.88;;;21.35;45.99
46876;BME280;32866;50.160;14.768;2023-04-10T09:29:12;100287.75;;;21.07;46.72
46876;BME280;32866;50.160;14.768;2023-04-10T09:31:37;100288.31;;;18.52;52.06
46876;BME280;32866;50.160;14.768;2023-04-10T09:34:21;100299.75;;;17.32;56.85
46876;BME280;32866;50.160;14.768;2023-04-10T09:36:53;100285.03;;;15.32;62.43
46876;BME280;32866;50.160;14.768;2023-04-10T09:39:19;100281.56;;;15.63;63.79
46876;BME280;32866;50.160;14.768;2023-04-10T09:41:51;100281.25;;;17.48;60.42
46876;BME280;32866;50.160;14.768;2023-04-10T09:44:18;100281.31;;;20.96;51.30
46876;BME280;32866;50.160;14.768;2023-04-10T09:46:44;100276.47;;;22.87;47.18
46876;BME280;32866;50.160;14.768;2023-04-10T09:49:09;100265.72;;;22.63;41.34
46876;BME280;32866;50.160;14.768;2023-04-10T09:51:34;100264.63;;;22.49;41.91
46876;BME280;32866;50.160;14.768;2023-04-10T09:54:03;100270.56;;;22.74;42.75
46876;BME280;32866;50.160;14.768;2023-04-10T09:56:28;100265.72;;;24.14;41.02
46876;BME280;32866;50.160;14.768;2023-04-10T09:58:56;100254.28;;;23.95;40.20
46876;BME280;32866;50.160;14.768;2023-04-10T10:01:21;100252.56;;;24.73;39.52
46876;BME280;32866;50.160;14.768;2023-04-10T10:06:49;100252.25;;;19.60;46.67
46876;BME280;32866;50.160;14.768;2023-04-10T10:09:14;100251.16;;;17.92;53.46
46876;BME280;32866;50.160;14.768;2023-04-10T10:11:40;100255.59;;;17.01;55.12
46876;BME280;32866;50.160;14.768;2023-04-10T10:14:07;100243.78;;;15.82;61.37
46876;BME280;32866;50.160;14.768;2023-04-10T10:16:38;100243.91;;;19.01;52.76
46876;BME280;32866;50.160;14.768;2023-04-10T10:21:32;100231.69;;;21.78;45.46
46876;BME280;32866;50.160;14.768;2023-04-10T10:23:59;100231.13;;;23.43;42.07
46876;BME280;32866;50.160;14.768;2023-04-10T10:26:27;100224.53;;;23.97;39.08
46876;BME280;32866;50.160;14.768;2023-04-10T10:28:53;100233.28;;;25.05;37.59
46876;BME280;32866;50.160;14.768;2023-04-10T10:31:20;100226.41;;;24.59;36.03
46876;BME280;32866;50.160;14.768;2023-04-10T10:33:46;100223.50;;;21.43;40.16
46876;BME280;32866;50.160;14.768;2023-04-10T10:36:12;100231.00;;;21.31;41.53
46876;BME280;32866;50.160;14.768;2023-04-10T10:38:39;100221.84;;;22.81;39.25
46876;BME280;32866;50.160;14.768;2023-04-10T10:43:46;100215.59;;;21.99;40.73
46876;BME280;32866;50.160;14.768;2023-04-10T10:46:27;100214.69;;;24.55;36.17
46876;BME280;32866;50.160;14.768;2023-04-10T10:48:57;100211.88;;;25.74;33.84
46876;BME280;32866;50.160;14.768;2023-04-10T10:51:23;100204.97;;;26.49;33.28
46876;BME280;32866;50.160;14.768;2023-04-10T10:53:48;100206.47;;;26.31;32.52
46876;BME280;32866;50.160;14.768;2023-04-10T10:58:47;100204.06;;;27.17;31.15
46876;BME280;32866;50.160;14.768;2023-04-10T11:01:12;100198.72;;;22.74;34.69
46876;BME280;32866;50.160;14.768;2023-04-10T11:03:37;100199.59;;;23.65;35.67
46876;BME280;32866;50.160;14.768;2023-04-10T11:06:07;100193.50;;;24.65;32.88
46876;BME280;32866;50.160;14.768;2023-04-10T11:11:19;100198.06;;;26.06;32.31
46876;BME280;32866;50.160;14.768;2023-04-10T11:16:43;100175.22;;;23.15;35.14
46876;BME280;32866;50.160;14.768;2023-04-10T11:19:08;100170.66;;;22.35;36.28
46876;BME280;32866;50.160;14.768;2023-04-10T11:21:40;100168.00;;;22.80;37.35
46876;BME280;32866;50.160;14.768;2023-04-10T11:24:22;100157.22;;;24.31;37.19
46876;BME280;32866;50.160;14.768;2023-04-10T11:26:47;100150.13;;;26.23;34.27
46876;BME280;32866;50.160;14.768;2023-04-10T11:31:44;100155.19;;;26.69;30.78
46876;BME280;32866;50.160;14.768;2023-04-10T11:34:10;100153.63;;;25.55;32.99
46876;BME280;32866;50.160;14.768;2023-04-10T11:36:41;100142.63;;;24.50;33.62
46876;BME280;32866;50.160;14.768;2023-04-10T11:41:39;100153.28;;;25.40;35.39
46876;BME280;32866;50.160;14.768;2023-04-10T11:44:06;100129.19;;;27.14;31.14
46876;BME280;32866;50.160;14.768;2023-04-10T11:46:35;100135.28;;;27.64;29.52
46876;BME280;32866;50.160;14.768;2023-04-10T11:49:01;100131.22;;;27.32;31.33
46876;BME280;32866;50.160;14.768;2023-04-10T11:51:26;100128.63;;;27.48;31.21
46876;BME280;32866;50.160;14.768;2023-04-10T11:56:37;100118.53;;;26.17;33.59
46876;BME280;32866;50.160;14.768;2023-04-10T11:59:03;100117.28;;;23.10;36.08
46876;BME280;32866;50.160;14.768;2023-04-10T12:01:33;100115.22;;;23.05;36.46
46876;BME280;32866;50.160;14.768;2023-04-10T12:03:59;100121.06;;;23.01;35.80
46876;BME280;32866;50.160;14.768;2023-04-10T12:06:25;100102.75;;;23.00;39.57
46876;BME280;32866;50.160;14.768;2023-04-10T12:08:51;100110.53;;;24.03;36.61
46876;BME280;32866;50.160;14.768;2023-04-10T12:11:17;100107.06;;;24.39;36.23
46876;BME280;32866;50.160;14.768;2023-04-10T12:13:44;100094.72;;;26.24;32.93
46876;BME280;32866;50.160;14.768;2023-04-10T12:16:10;100094.22;;;25.32;32.76
46876;BME280;32866;50.160;14.768;2023-04-10T12:18:36;100091.84;;;26.10;33.25
46876;BME280;32866;50.160;14.768;2023-04-10T12:21:02;100084.31;;;26.38;32.60
46876;BME280;32866;50.160;14.768;2023-04-10T12:23:28;100076.25;;;23.80;35.41
46876;BME280;32866;50.160;14.768;2023-04-10T12:26:04;100084.59;;;23.97;38.80
46876;BME280;32866;50.160;14.768;2023-04-10T12:28:31;100079.53;;;24.43;36.12
46876;BME280;32866;50.160;14.768;2023-04-10T12:30:57;100083.44;;;25.36;35.88
46876;BME280;32866;50.160;14.768;2023-04-10T12:33:22;100076.28;;;24.33;35.16
46876;BME280;32866;50.160;14.768;2023-04-10T12:35:48;100067.28;;;25.92;33.87
46876;BME280;32866;50.160;14.768;2023-04-10T12:38:14;100070.50;;;26.91;31.74
46876;BME280;32866;50.160;14.768;2023-04-10T12:41:00;100062.31;;;27.66;30.07
46876;BME280;32866;50.160;14.768;2023-04-10T12:43:32;100053.19;;;26.55;32.31
46876;BME280;32866;50.160;14.768;2023-04-10T12:46:00;100050.31;;;27.65;31.85
46876;BME280;32866;50.160;14.768;2023-04-10T12:48:26;100054.22;;;27.03;32.84
46876;BME280;32866;50.160;14.768;2023-04-10T12:50:51;100049.53;;;26.92;32.29
46876;BME280;32866;50.160;14.768;2023-04-10T12:53:17;100051.28;;;26.44;32.49
46876;BME280;32866;50.160;14.768;2023-04-10T12:55:54;100046.63;;;25.21;34.44
46876;BME280;32866;50.160;14.768;2023-04-10T12:58:20;100050.19;;;24.08;35.93
46876;BME280;32866;50.160;14.768;2023-04-10T13:00:46;100042.28;;;23.31;36.22
46876;BME280;32866;50.160;14.768;2023-04-10T13:03:11;100030.78;;;23.57;36.34
46876;BME280;32866;50.160;14.768;2023-04-10T13:05:36;100032.16;;;23.28;36.13
46876;BME280;32866;50.160;14.768;2023-04-10T13:08:01;100020.97;;;23.11;36.57
46876;BME280;32866;50.160;14.768;2023-04-10T13:10:27;100019.53;;;23.74;36.75
46876;BME280;32866;50.160;14.768;2023-04-10T13:12:52;100018.00;;;23.90;36.66
46876;BME280;32866;50.160;14.768;2023-04-10T13:15:17;100011.28;;;24.46;34.59